createdAt,value
2022-09-07T00:22:36.341Z,1.75
2022-09-07T00:25:07.163Z,1.60
2022-09-07T00:32:51.816Z,1.63
2022-09-07T01:30:01.204Z,1.73
2022-09-07T01:50:23.371Z,1.50
2022-09-07T01:53:17.576Z,2.00
2022-09-07T01:56:39.994Z,1.80
2022-09-07T02:00:36.667Z,1.95
2022-09-07T02:03:09.784Z,1.75
2022-09-07T02:18:23.083Z,1.75
2022-09-07T02:39:06.294Z,1.90
2022-09-07T02:42:06.230Z,2.17
2022-09-07T04:09:20.521Z,2.35
2022-09-07T04:21:21.163Z,2.08
2022-09-07T04:31:49.801Z,2.42
2022-09-07T04:38:43.896Z,2.78
2022-09-07T04:41:25.403Z,2.75
2022-09-07T04:43:58.806Z,2.67
2022-09-07T04:49:37.087Z,2.78
2022-09-07T04:52:22.609Z,2.53
2022-09-07T04:54:56.223Z,2.40
2022-09-07T04:57:27.971Z,2.50
2022-09-07T05:00:08.216Z,2.40
2022-09-07T05:02:37.067Z,2.33
2022-09-07T05:05:11.247Z,2.45
2022-09-07T05:07:44.408Z,2.50
2022-09-07T05:10:22.189Z,2.63
2022-09-07T05:12:54.442Z,2.40
2022-09-07T05:15:30.586Z,2.45
2022-09-07T05:17:59.772Z,2.30
2022-09-07T05:20:31.754Z,2.55
2022-09-07T05:23:14.076Z,2.70
2022-09-07T05:25:48.072Z,2.63
2022-09-07T05:28:19.551Z,2.65
2022-09-07T05:36:47.242Z,3.38
2022-09-07T05:39:17.001Z,2.85
2022-09-07T05:41:48.196Z,2.75
2022-09-07T05:47:13.771Z,2.67
2022-09-07T05:49:43.483Z,2.70
2022-09-07T05:52:15.902Z,2.78
2022-09-07T05:54:44.418Z,2.78
2022-09-07T05:57:18.598Z,3.30
2022-09-07T05:59:46.596Z,3.10
2022-09-07T06:02:17.201Z,2.78
2022-09-07T06:04:48.757Z,2.97
2022-09-07T06:07:23.420Z,2.92
2022-09-07T06:12:52.692Z,3.10
2022-09-07T06:15:24.051Z,2.63
2022-09-07T06:17:59.795Z,2.42
2022-09-07T06:20:31.725Z,3.00
2022-09-07T06:23:10.594Z,2.78
2022-09-07T06:25:50.433Z,2.97
2022-09-07T06:28:21.080Z,2.97
2022-09-07T06:30:55.363Z,3.67
2022-09-07T06:33:23.479Z,3.20
2022-09-07T06:36:02.511Z,3.25
2022-09-07T06:38:34.172Z,3.10
2022-09-07T06:44:09.599Z,3.17
2022-09-07T06:49:31.995Z,3.38
2022-09-07T06:52:05.419Z,4.88
2022-09-07T06:57:24.128Z,3.25
2022-09-07T06:59:53.373Z,2.97
2022-09-07T07:02:23.184Z,3.28
2022-09-07T07:04:54.272Z,2.90
2022-09-07T07:07:25.369Z,3.10
2022-09-07T07:09:53.303Z,3.38
2022-09-07T07:14:46.997Z,3.22
2022-09-07T07:17:16.808Z,3.92
2022-09-07T07:19:44.549Z,3.85
2022-09-07T07:22:35.920Z,3.65
2022-09-07T07:24:59.665Z,3.38
2022-09-07T07:27:27.230Z,2.90
2022-09-07T07:29:54.993Z,4.00
2022-09-07T07:32:22.962Z,3.53
2022-09-07T07:34:50.725Z,3.10
2022-09-07T07:44:09.519Z,3.38
2022-09-07T07:46:40.317Z,3.13
2022-09-07T07:49:10.853Z,3.97
2022-09-07T07:54:24.342Z,3.70
2022-09-07T07:56:53.040Z,2.97
2022-09-07T07:59:21.746Z,3.47
2022-09-07T08:01:49.712Z,3.55
2022-09-07T08:04:17.455Z,3.58
2022-09-07T08:06:45.253Z,3.67
2022-09-07T08:09:12.894Z,4.05
2022-09-07T08:11:40.651Z,3.30
2022-09-07T08:14:09.568Z,3.33
2022-09-07T08:16:38.416Z,3.42
2022-09-07T08:19:07.400Z,4.20
2022-09-07T08:21:35.375Z,3.78
2022-09-07T08:24:05.562Z,3.88
2022-09-07T08:26:33.533Z,3.90
2022-09-07T08:29:04.084Z,4.45
2022-09-07T08:34:15.624Z,4.07
2022-09-07T08:36:45.614Z,4.05
2022-09-07T08:39:13.884Z,4.78
2022-09-07T08:42:38.912Z,3.92
2022-09-07T08:45:15.995Z,4.10
2022-09-07T08:47:52.592Z,4.22
2022-09-07T08:50:44.674Z,3.85
2022-09-07T08:53:36.773Z,4.15
2022-09-07T08:56:12.454Z,3.70
2022-09-07T08:58:49.631Z,4.35
2022-09-07T09:01:31.453Z,4.28
2022-09-07T09:04:18.155Z,4.05
2022-09-07T09:07:19.510Z,4.22
2022-09-07T09:10:20.334Z,4.05
2022-09-07T09:13:06.023Z,4.95
2022-09-07T09:16:07.347Z,4.72
2022-09-07T09:18:47.953Z,4.35
2022-09-07T09:21:20.061Z,4.60
2022-09-07T09:23:50.448Z,4.40
2022-09-07T09:26:33.902Z,5.05
2022-09-07T09:29:23.621Z,4.43
2022-09-07T09:31:56.160Z,3.95
2022-09-07T09:34:29.406Z,4.47
2022-09-07T09:37:00.586Z,4.55
2022-09-07T09:39:38.378Z,4.32
2022-09-07T09:42:34.147Z,4.40
2022-09-07T09:45:29.297Z,4.78
2022-09-07T09:48:04.105Z,4.67
2022-09-07T09:53:33.356Z,4.10
2022-09-07T09:56:04.503Z,4.18
2022-09-07T10:18:44.018Z,4.68
2022-09-07T10:24:05.460Z,4.97
2022-09-07T10:26:37.695Z,5.10
2022-09-07T10:29:17.357Z,5.00
2022-09-07T10:32:05.783Z,4.60
2022-09-07T10:35:05.265Z,4.65
2022-09-07T10:37:50.907Z,4.85
2022-09-07T10:40:38.107Z,4.95
2022-09-07T10:43:38.953Z,3.90
2022-09-07T10:49:35.616Z,4.60
2022-09-07T10:52:20.666Z,4.93
2022-09-07T10:58:14.440Z,4.57
2022-09-07T11:01:07.039Z,5.38
2022-09-07T11:03:49.611Z,4.90
2022-09-07T11:06:23.268Z,5.60
2022-09-07T11:09:34.874Z,5.07
2022-09-07T11:12:14.014Z,5.40
2022-09-07T11:15:16.285Z,4.95
2022-09-07T11:17:57.187Z,4.90
2022-09-07T11:20:38.795Z,4.68
2022-09-07T11:23:18.895Z,5.55
2022-09-07T11:26:19.534Z,5.32
2022-09-07T11:31:48.894Z,5.00
2022-09-07T11:34:24.531Z,5.85
2022-09-07T11:37:02.869Z,4.72
2022-09-07T11:40:04.363Z,4.53
2022-09-07T11:42:50.339Z,4.95
2022-09-07T11:45:34.243Z,4.80
2022-09-07T11:48:31.379Z,4.78
2022-09-07T11:51:25.450Z,5.03
2022-09-07T11:54:04.009Z,4.63
2022-09-07T11:56:37.543Z,4.95
2022-09-07T11:59:36.992Z,6.28
2022-09-07T12:02:48.407Z,5.00
2022-09-07T12:05:53.854Z,5.00
2022-09-07T12:09:02.961Z,4.68
2022-09-07T12:14:15.808Z,5.13
2022-09-07T12:17:01.883Z,5.78
2022-09-07T12:19:30.281Z,5.40
2022-09-07T12:21:59.976Z,4.85
2022-09-07T12:24:47.347Z,5.40
2022-09-07T12:27:30.055Z,5.05
2022-09-07T12:30:05.898Z,5.13
2022-09-07T12:32:56.171Z,4.95
2022-09-07T12:35:32.769Z,5.88
2022-09-07T12:38:31.527Z,5.32
2022-09-07T12:41:22.027Z,4.93
2022-09-07T12:43:54.819Z,4.68
2022-09-07T12:46:35.799Z,5.30
2022-09-07T12:49:09.874Z,5.03
2022-09-07T12:54:39.531Z,4.60
2022-09-07T12:57:29.695Z,5.43
2022-09-07T13:00:07.649Z,5.22
2022-09-07T13:09:24.655Z,4.88
2022-09-07T13:11:53.167Z,5.53
2022-09-07T13:14:34.508Z,6.05
2022-09-07T13:17:36.527Z,5.60
2022-09-07T13:20:07.469Z,5.10
2022-09-07T13:22:35.418Z,5.13
2022-09-07T13:26:01.835Z,5.20
2022-09-07T13:28:54.966Z,5.18
2022-09-07T13:35:08.321Z,5.28
2022-09-07T13:41:23.738Z,5.53
2022-09-07T13:43:59.104Z,5.18
2022-09-07T13:47:07.052Z,5.50
2022-09-07T13:57:58.805Z,4.63
2022-09-07T14:01:05.738Z,5.05
2022-09-07T14:04:30.816Z,5.45
2022-09-07T14:07:37.065Z,4.78
2022-09-07T14:10:29.377Z,4.95
2022-09-07T14:13:37.269Z,4.90
2022-09-07T14:16:44.161Z,4.82
2022-09-07T14:26:38.982Z,5.28
2022-09-07T14:29:06.681Z,5.22
2022-09-07T14:32:14.551Z,4.95
2022-09-07T14:37:39.927Z,5.40
2022-09-07T14:40:31.552Z,4.78
2022-09-07T14:50:10.712Z,4.47
2022-09-07T14:53:40.948Z,4.72
2022-09-07T14:59:57.720Z,4.53
2022-09-07T15:02:46.929Z,5.22
2022-09-07T15:05:39.600Z,4.90
2022-09-07T15:11:39.322Z,5.05
2022-09-07T15:14:36.382Z,5.45
2022-09-07T15:21:24.716Z,5.47
2022-09-07T15:24:35.555Z,5.00
2022-09-07T15:31:40.524Z,5.20
2022-09-07T15:33:55.036Z,6.07
2022-09-07T15:36:39.009Z,6.97
2022-09-07T15:40:11.263Z,6.20
2022-09-07T15:43:08.519Z,6.60
2022-09-07T15:45:39.678Z,6.38
2022-09-07T15:48:28.319Z,5.35
2022-09-07T15:55:06.245Z,5.10
2022-09-07T15:57:59.519Z,5.50
2022-09-07T16:04:54.622Z,8.20
2022-09-07T16:13:18.204Z,16.05
2022-09-07T16:18:31.365Z,14.93
2022-09-07T16:18:46.555Z,24.23
2022-09-07T16:21:17.095Z,17.88
2022-09-07T16:23:56.310Z,6.07
2022-09-07T16:26:27.180Z,14.63
2022-09-07T16:28:58.841Z,6.72
2022-09-07T16:31:32.566Z,5.53
2022-09-07T16:34:25.463Z,7.45
2022-09-07T16:36:54.633Z,7.13
2022-09-07T16:39:27.055Z,7.22
2022-09-07T16:42:18.251Z,5.78
2022-09-07T16:44:53.742Z,6.80
2022-09-07T16:47:50.905Z,6.03
2022-09-07T16:50:27.728Z,5.78
2022-09-07T16:53:02.889Z,5.95
2022-09-07T16:55:52.247Z,4.93
2022-09-07T16:58:36.959Z,7.50
2022-09-07T17:01:19.845Z,5.63
2022-09-07T17:04:06.677Z,5.50
2022-09-07T17:06:38.611Z,7.65
2022-09-07T17:09:27.688Z,7.90
2022-09-07T17:12:03.627Z,22.85
2022-09-07T17:14:38.441Z,14.35
2022-09-07T17:17:13.353Z,11.13
2022-09-07T17:19:46.939Z,10.05
2022-09-07T17:22:14.923Z,13.77
2022-09-07T17:24:50.497Z,11.07
2022-09-07T17:30:00.033Z,7.15
2022-09-07T17:32:33.911Z,6.15
2022-09-07T17:35:10.481Z,5.78
2022-09-07T17:38:00.943Z,6.13
2022-09-07T17:40:44.290Z,5.05
2022-09-07T17:46:10.578Z,5.55
2022-09-07T17:49:10.478Z,4.63
2022-09-07T17:52:26.308Z,5.63
2022-09-07T17:55:09.330Z,5.00
2022-09-07T17:58:24.659Z,4.47
2022-09-07T18:01:23.946Z,4.47
2022-09-07T18:07:04.599Z,4.45
2022-09-07T18:12:17.223Z,4.10
2022-09-07T18:18:30.610Z,4.28
2022-09-07T18:21:28.081Z,3.45
2022-09-07T18:36:59.013Z,4.50
2022-09-07T18:46:22.862Z,4.57
2022-09-07T18:48:58.232Z,4.68
2022-09-07T18:55:29.254Z,4.57
2022-09-07T19:01:20.396Z,4.95
2022-09-07T19:07:29.846Z,5.25
2022-09-07T19:10:41.280Z,4.95
2022-09-07T19:16:25.282Z,5.35
2022-09-07T19:19:57.283Z,5.80
2022-09-07T19:26:20.839Z,6.43
2022-09-07T19:28:47.959Z,5.53
2022-09-07T19:34:44.631Z,5.72
2022-09-07T19:37:28.222Z,5.28
2022-09-07T19:43:34.739Z,5.07
2022-09-07T19:49:17.595Z,5.00
2022-09-07T19:52:17.530Z,5.67
2022-09-07T19:55:09.235Z,4.72
2022-09-07T19:58:33.043Z,5.55
2022-09-07T20:01:16.685Z,4.57
2022-09-07T20:04:24.627Z,4.57
2022-09-07T20:10:43.390Z,4.90
2022-09-07T20:13:28.542Z,5.43
2022-09-07T20:16:04.758Z,5.13
2022-09-07T20:19:05.655Z,5.20
2022-09-07T20:24:45.135Z,4.80
2022-09-07T20:27:22.608Z,5.07
2022-09-07T20:29:56.352Z,5.13
2022-09-07T20:32:29.166Z,4.97
2022-09-07T20:35:05.784Z,5.05
2022-09-07T20:38:14.943Z,5.60
2022-09-07T20:40:26.270Z,4.85
2022-09-07T20:42:59.085Z,4.97
2022-09-07T20:45:44.399Z,4.85
2022-09-07T20:48:15.776Z,5.00
2022-09-07T20:53:53.382Z,4.80
2022-09-07T20:56:30.558Z,4.53
2022-09-07T20:59:12.652Z,4.13
2022-09-07T21:01:45.500Z,5.03
2022-09-07T21:04:18.359Z,3.90
2022-09-07T21:07:00.776Z,4.20
2022-09-07T21:09:32.308Z,5.57
2022-09-07T21:12:02.737Z,4.32
2022-09-07T21:17:34.329Z,4.40
2022-09-07T21:20:10.554Z,4.95
2022-09-07T21:22:44.804Z,4.32
2022-09-07T21:25:25.610Z,4.15
2022-09-07T21:28:01.961Z,4.00
2022-09-07T21:33:40.312Z,4.28
2022-09-07T21:36:26.325Z,3.97
2022-09-07T21:39:02.604Z,3.95
2022-09-07T21:44:28.116Z,4.07
2022-09-07T21:47:08.272Z,3.47
2022-09-07T21:49:56.642Z,4.45
2022-09-07T21:52:25.820Z,4.22
2022-09-07T21:54:54.409Z,3.55
2022-09-07T21:57:24.044Z,4.07
2022-09-07T21:59:56.738Z,3.90
2022-09-07T22:02:30.826Z,3.58
2022-09-07T22:05:07.401Z,3.95
2022-09-07T22:07:50.512Z,4.22
2022-09-07T22:10:19.654Z,3.53
2022-09-07T22:12:50.643Z,4.18
2022-09-07T22:15:22.910Z,4.03
2022-09-07T22:17:56.330Z,4.13
2022-09-07T22:20:29.681Z,3.75
2022-09-07T22:23:50.623Z,3.80
2022-09-07T22:26:25.794Z,3.70
2022-09-07T22:28:58.193Z,3.53
2022-09-07T22:31:37.784Z,3.40
2022-09-07T22:34:13.884Z,3.83
2022-09-07T22:36:50.452Z,4.15
2022-09-07T22:39:21.273Z,3.95
2022-09-07T22:41:55.184Z,3.72
2022-09-07T22:44:24.831Z,3.75
2022-09-07T22:46:57.286Z,3.67
2022-09-07T22:49:29.359Z,3.72
2022-09-07T22:52:01.099Z,4.18
2022-09-07T22:54:33.834Z,3.70
2022-09-07T22:57:06.029Z,4.32
2022-09-07T22:59:36.558Z,3.83
2022-09-07T23:02:07.021Z,4.03
2022-09-07T23:04:38.606Z,4.10
2022-09-07T23:07:13.391Z,3.60
2022-09-07T23:09:43.695Z,4.18
2022-09-07T23:12:15.834Z,3.90
2022-09-07T23:14:45.623Z,3.53
2022-09-07T23:17:21.034Z,3.65
2022-09-07T23:23:16.117Z,3.78
2022-09-07T23:25:51.589Z,3.33
2022-09-07T23:31:25.320Z,2.97
2022-09-07T23:36:55.435Z,3.55
2022-09-07T23:39:53.569Z,3.50
2022-09-07T23:42:26.336Z,4.10
2022-09-07T23:45:00.538Z,3.65
2022-09-07T23:47:30.480Z,3.63
2022-09-07T23:50:06.379Z,3.63
2022-09-07T23:52:52.403Z,3.33
2022-09-07T23:55:27.404Z,3.58
2022-09-07T23:58:01.277Z,3.85
